sensor_id;sensor_type;location;lat;lon;timestamp;P1;durP1;ratioP1;P2;durP2;ratioP2
27618;SDS011;15039;50.830;4.730;2022-07-06T00:00:42;4.43;;;1.70;;
27618;SDS011;15039;50.830;4.730;2022-07-06T00:03:08;3.05;;;1.70;;
27618;SDS011;15039;50.830;4.730;2022-07-06T00:05:33;2.78;;;1.65;;
27618;SDS011;15039;50.830;4.730;2022-07-06T00:07:59;3.22;;;1.60;;
27618;SDS011;15039;50.830;4.730;2022-07-06T00:10:25;3.08;;;2.17;;
27618;SDS011;15039;50.830;4.730;2022-07-06T00:12:50;4.35;;;2.30;;
27618;SDS011;15039;50.830;4.730;2022-07-06T00:15:16;3.15;;;1.70;;
27618;SDS011;15039;50.830;4.730;2022-07-06T00:17:42;3.38;;;1.95;;
27618;SDS011;15039;50.830;4.730;2022-07-06T00:20:07;4.65;;;2.50;;
27618;SDS011;15039;50.830;4.730;2022-07-06T00:22:33;7.05;;;1.90;;
27618;SDS011;15039;50.830;4.730;2022-07-06T00:24:59;3.13;;;1.70;;
27618;SDS011;15039;50.830;4.730;2022-07-06T00:27:25;4.03;;;2.10;;
27618;SDS011;15039;50.830;4.730;2022-07-06T00:29:50;3.88;;;1.95;;
27618;SDS011;15039;50.830;4.730;2022-07-06T00:32:16;5.38;;;2.17;;
27618;SDS011;15039;50.830;4.730;2022-07-06T00:34:41;6.50;;;2.60;;
27618;SDS011;15039;50.830;4.730;2022-07-06T00:37:07;2.97;;;1.90;;
27618;SDS011;15039;50.830;4.730;2022-07-06T00:39:33;2.97;;;1.70;;
27618;SDS011;15039;50.830;4.730;2022-07-06T00:41:59;4.60;;;2.45;;
27618;SDS011;15039;50.830;4.730;2022-07-06T00:44:25;3.50;;;1.60;;
27618;SDS011;15039;50.830;4.730;2022-07-06T00:46:50;3.33;;;1.88;;
27618;SDS011;15039;50.830;4.730;2022-07-06T00:49:16;2.63;;;1.98;;
27618;SDS011;15039;50.830;4.730;2022-07-06T00:52:00;4.00;;;2.03;;
27618;SDS011;15039;50.830;4.730;2022-07-06T00:54:28;4.20;;;2.05;;
27618;SDS011;15039;50.830;4.730;2022-07-06T00:56:57;2.53;;;1.75;;
27618;SDS011;15039;50.830;4.730;2022-07-06T00:59:23;3.15;;;1.83;;
27618;SDS011;15039;50.830;4.730;2022-07-06T01:01:50;7.10;;;2.22;;
27618;SDS011;15039;50.830;4.730;2022-07-06T01:04:16;3.45;;;2.00;;
27618;SDS011;15039;50.830;4.730;2022-07-06T01:06:41;7.30;;;2.60;;
27618;SDS011;15039;50.830;4.730;2022-07-06T01:09:10;6.10;;;2.30;;
27618;SDS011;15039;50.830;4.730;2022-07-06T01:11:36;7.25;;;2.50;;
27618;SDS011;15039;50.830;4.730;2022-07-06T01:14:01;5.93;;;2.10;;
27618;SDS011;15039;50.830;4.730;2022-07-06T01:16:27;5.40;;;1.98;;
27618;SDS011;15039;50.830;4.730;2022-07-06T01:18:53;4.68;;;2.10;;
27618;SDS011;15039;50.830;4.730;2022-07-06T01:21:18;3.42;;;2.28;;
27618;SDS011;15039;50.830;4.730;2022-07-06T01:23:46;5.65;;;2.53;;
27618;SDS011;15039;50.830;4.730;2022-07-06T01:26:18;2.85;;;2.03;;
27618;SDS011;15039;50.830;4.730;2022-07-06T01:28:45;2.47;;;1.85;;
27618;SDS011;15039;50.830;4.730;2022-07-06T01:33:46;7.38;;;2.17;;
27618;SDS011;15039;50.830;4.730;2022-07-06T01:36:13;2.10;;;1.75;;
27618;SDS011;15039;50.830;4.730;2022-07-06T01:38:45;3.97;;;1.98;;
27618;SDS011;15039;50.830;4.730;2022-07-06T01:41:16;2.53;;;1.92;;
27618;SDS011;15039;50.830;4.730;2022-07-06T01:43:42;6.85;;;2.10;;
27618;SDS011;15039;50.830;4.730;2022-07-06T01:46:08;7.10;;;2.80;;
27618;SDS011;15039;50.830;4.730;2022-07-06T01:48:33;4.32;;;2.30;;
27618;SDS011;15039;50.830;4.730;2022-07-06T01:50:59;4.38;;;2.17;;
27618;SDS011;15039;50.830;4.730;2022-07-06T01:53:25;5.97;;;2.85;;
27618;SDS011;15039;50.830;4.730;2022-07-06T01:55:50;4.53;;;2.33;;
27618;SDS011;15039;50.830;4.730;2022-07-06T01:58:16;3.28;;;2.40;;
27618;SDS011;15039;50.830;4.730;2022-07-06T02:00:42;4.65;;;2.70;;
27618;SDS011;15039;50.830;4.730;2022-07-06T02:03:07;6.50;;;2.38;;
27618;SDS011;15039;50.830;4.730;2022-07-06T02:05:33;4.75;;;2.90;;
27618;SDS011;15039;50.830;4.730;2022-07-06T02:07:59;4.75;;;1.90;;
27618;SDS011;15039;50.830;4.730;2022-07-06T02:10:24;3.90;;;2.22;;
27618;SDS011;15039;50.830;4.730;2022-07-06T02:12:50;3.47;;;2.28;;
27618;SDS011;15039;50.830;4.730;2022-07-06T02:15:16;4.20;;;2.20;;
27618;SDS011;15039;50.830;4.730;2022-07-06T02:17:41;3.60;;;2.00;;
27618;SDS011;15039;50.830;4.730;2022-07-06T02:20:07;3.30;;;2.17;;
27618;SDS011;15039;50.830;4.730;2022-07-06T02:22:33;5.88;;;2.28;;
27618;SDS011;15039;50.830;4.730;2022-07-06T02:24:59;6.43;;;2.50;;
27618;SDS011;15039;50.830;4.730;2022-07-06T02:27:25;4.05;;;2.38;;
27618;SDS011;15039;50.830;4.730;2022-07-06T02:29:50;3.05;;;2.40;;
27618;SDS011;15039;50.830;4.730;2022-07-06T02:32:16;3.88;;;2.45;;
27618;SDS011;15039;50.830;4.730;2022-07-06T02:34:42;3.20;;;2.30;;
27618;SDS011;15039;50.830;4.730;2022-07-06T02:37:08;7.25;;;2.78;;
27618;SDS011;15039;50.830;4.730;2022-07-06T02:39:34;5.00;;;2.70;;
27618;SDS011;15039;50.830;4.730;2022-07-06T02:41:59;4.20;;;2.53;;
27618;SDS011;15039;50.830;4.730;2022-07-06T02:44:25;3.13;;;2.60;;
27618;SDS011;15039;50.830;4.730;2022-07-06T02:46:51;4.57;;;3.03;;
27618;SDS011;15039;50.830;4.730;2022-07-06T02:49:16;6.45;;;2.90;;
27618;SDS011;15039;50.830;4.730;2022-07-06T02:51:42;4.75;;;3.17;;
27618;SDS011;15039;50.830;4.730;2022-07-06T02:54:08;7.45;;;3.67;;
27618;SDS011;15039;50.830;4.730;2022-07-06T02:56:33;5.40;;;2.58;;
27618;SDS011;15039;50.830;4.730;2022-07-06T02:58:59;5.90;;;3.03;;
27618;SDS011;15039;50.830;4.730;2022-07-06T03:01:25;4.47;;;2.70;;
27618;SDS011;15039;50.830;4.730;2022-07-06T03:03:50;7.82;;;3.15;;
27618;SDS011;15039;50.830;4.730;2022-07-06T03:06:16;3.55;;;2.47;;
27618;SDS011;15039;50.830;4.730;2022-07-06T03:08:42;4.82;;;2.70;;
27618;SDS011;15039;50.830;4.730;2022-07-06T03:11:07;5.97;;;2.60;;
27618;SDS011;15039;50.830;4.730;2022-07-06T03:13:34;3.63;;;2.47;;
27618;SDS011;15039;50.830;4.730;2022-07-06T03:16:00;6.55;;;2.90;;
27618;SDS011;15039;50.830;4.730;2022-07-06T03:18:25;4.10;;;2.80;;
27618;SDS011;15039;50.830;4.730;2022-07-06T03:20:51;5.22;;;2.90;;
27618;SDS011;15039;50.830;4.730;2022-07-06T03:23:17;4.50;;;2.97;;
27618;SDS011;15039;50.830;4.730;2022-07-06T03:25:44;5.45;;;2.70;;
27618;SDS011;15039;50.830;4.730;2022-07-06T03:28:10;6.00;;;2.88;;
27618;SDS011;15039;50.830;4.730;2022-07-06T03:30:36;3.20;;;2.47;;
27618;SDS011;15039;50.830;4.730;2022-07-06T03:33:01;3.75;;;2.50;;
27618;SDS011;15039;50.830;4.730;2022-07-06T03:35:27;3.28;;;2.42;;
27618;SDS011;15039;50.830;4.730;2022-07-06T03:37:53;4.20;;;2.53;;
27618;SDS011;15039;50.830;4.730;2022-07-06T03:40:18;7.30;;;2.95;;
27618;SDS011;15039;50.830;4.730;2022-07-06T03:42:44;2.58;;;2.30;;
27618;SDS011;15039;50.830;4.730;2022-07-06T03:45:10;4.50;;;2.90;;
27618;SDS011;15039;50.830;4.730;2022-07-06T03:47:36;3.97;;;2.78;;
27618;SDS011;15039;50.830;4.730;2022-07-06T03:50:01;4.47;;;2.80;;
27618;SDS011;15039;50.830;4.730;2022-07-06T03:52:27;6.25;;;2.70;;
27618;SDS011;15039;50.830;4.730;2022-07-06T03:54:53;5.40;;;2.45;;
27618;SDS011;15039;50.830;4.730;2022-07-06T03:57:19;3.08;;;2.50;;
27618;SDS011;15039;50.830;4.730;2022-07-06T03:59:46;6.22;;;2.63;;
27618;SDS011;15039;50.830;4.730;2022-07-06T04:02:12;3.88;;;2.42;;
27618;SDS011;15039;50.830;4.730;2022-07-06T04:04:38;4.25;;;2.75;;
27618;SDS011;15039;50.830;4.730;2022-07-06T04:07:04;9.02;;;3.03;;
27618;SDS011;15039;50.830;4.730;2022-07-06T04:09:29;4.35;;;2.58;;
27618;SDS011;15039;50.830;4.730;2022-07-06T04:11:55;5.60;;;2.45;;
27618;SDS011;15039;50.830;4.730;2022-07-06T04:14:21;5.28;;;2.78;;
27618;SDS011;15039;50.830;4.730;2022-07-06T04:16:46;4.53;;;2.45;;
27618;SDS011;15039;50.830;4.730;2022-07-06T04:19:12;4.65;;;2.55;;
27618;SDS011;15039;50.830;4.730;2022-07-06T04:21:38;4.35;;;2.50;;
27618;SDS011;15039;50.830;4.730;2022-07-06T04:24:04;6.10;;;3.00;;
27618;SDS011;15039;50.830;4.730;2022-07-06T04:26:30;4.93;;;2.45;;
27618;SDS011;15039;50.830;4.730;2022-07-06T04:28:55;2.70;;;2.50;;
27618;SDS011;15039;50.830;4.730;2022-07-06T04:31:21;4.97;;;2.53;;
27618;SDS011;15039;50.830;4.730;2022-07-06T04:33:47;6.30;;;2.80;;
27618;SDS011;15039;50.830;4.730;2022-07-06T04:36:13;3.50;;;2.50;;
27618;SDS011;15039;50.830;4.730;2022-07-06T04:38:38;4.60;;;2.30;;
27618;SDS011;15039;50.830;4.730;2022-07-06T04:41:04;4.18;;;2.42;;
27618;SDS011;15039;50.830;4.730;2022-07-06T04:43:30;4.88;;;2.70;;
27618;SDS011;15039;50.830;4.730;2022-07-06T04:45:55;5.10;;;2.60;;
27618;SDS011;15039;50.830;4.730;2022-07-06T04:48:21;4.13;;;2.72;;
27618;SDS011;15039;50.830;4.730;2022-07-06T04:50:46;5.00;;;2.97;;
27618;SDS011;15039;50.830;4.730;2022-07-06T04:53:12;5.72;;;2.67;;
27618;SDS011;15039;50.830;4.730;2022-07-06T04:55:38;4.57;;;2.70;;
27618;SDS011;15039;50.830;4.730;2022-07-06T04:58:03;6.70;;;2.92;;
27618;SDS011;15039;50.830;4.730;2022-07-06T05:00:29;4.55;;;2.33;;
27618;SDS011;15039;50.830;4.730;2022-07-06T05:02:55;6.57;;;3.17;;
27618;SDS011;15039;50.830;4.730;2022-07-06T05:05:20;4.50;;;2.40;;
27618;SDS011;15039;50.830;4.730;2022-07-06T05:07:46;4.95;;;2.97;;
27618;SDS011;15039;50.830;4.730;2022-07-06T05:10:13;6.10;;;3.63;;
27618;SDS011;15039;50.830;4.730;2022-07-06T05:12:38;4.10;;;2.38;;
27618;SDS011;15039;50.830;4.730;2022-07-06T05:15:04;4.78;;;2.40;;
27618;SDS011;15039;50.830;4.730;2022-07-06T05:17:30;3.85;;;2.45;;
27618;SDS011;15039;50.830;4.730;2022-07-06T05:19:56;5.50;;;2.67;;
27618;SDS011;15039;50.830;4.730;2022-07-06T05:22:22;3.90;;;2.67;;
27618;SDS011;15039;50.830;4.730;2022-07-06T05:24:47;5.47;;;2.80;;
27618;SDS011;15039;50.830;4.730;2022-07-06T05:27:13;3.90;;;2.75;;
27618;SDS011;15039;50.830;4.730;2022-07-06T05:29:39;3.03;;;2.60;;
27618;SDS011;15039;50.830;4.730;2022-07-06T05:32:04;6.03;;;2.92;;
27618;SDS011;15039;50.830;4.730;2022-07-06T05:34:31;4.10;;;2.50;;
27618;SDS011;15039;50.830;4.730;2022-07-06T05:36:57;3.75;;;2.53;;
27618;SDS011;15039;50.830;4.730;2022-07-06T05:39:22;5.32;;;2.40;;
27618;SDS011;15039;50.830;4.730;2022-07-06T05:41:48;5.18;;;2.65;;
27618;SDS011;15039;50.830;4.730;2022-07-06T05:44:14;5.15;;;2.67;;
27618;SDS011;15039;50.830;4.730;2022-07-06T05:46:40;4.13;;;2.88;;
27618;SDS011;15039;50.830;4.730;2022-07-06T05:49:06;4.30;;;2.47;;
27618;SDS011;15039;50.830;4.730;2022-07-06T05:51:50;3.63;;;2.60;;
27618;SDS011;15039;50.830;4.730;2022-07-06T05:54:16;5.03;;;2.85;;
27618;SDS011;15039;50.830;4.730;2022-07-06T05:56:42;6.45;;;2.67;;
27618;SDS011;15039;50.830;4.730;2022-07-06T05:59:08;5.20;;;3.00;;
27618;SDS011;15039;50.830;4.730;2022-07-06T06:01:34;3.22;;;2.83;;
27618;SDS011;15039;50.830;4.730;2022-07-06T06:03:59;5.75;;;2.60;;
27618;SDS011;15039;50.830;4.730;2022-07-06T06:06:26;7.13;;;2.72;;
27618;SDS011;15039;50.830;4.730;2022-07-06T06:08:51;5.95;;;2.05;;
27618;SDS011;15039;50.830;4.730;2022-07-06T06:11:17;4.68;;;2.20;;
27618;SDS011;15039;50.830;4.730;2022-07-06T06:13:43;2.83;;;2.25;;
27618;SDS011;15039;50.830;4.730;2022-07-06T06:16:09;3.10;;;2.08;;
27618;SDS011;15039;50.830;4.730;2022-07-06T06:18:35;3.28;;;1.85;;
27618;SDS011;15039;50.830;4.730;2022-07-06T06:21:01;7.47;;;2.17;;
27618;SDS011;15039;50.830;4.730;2022-07-06T06:23:26;6.68;;;2.22;;
27618;SDS011;15039;50.830;4.730;2022-07-06T06:25:52;3.55;;;2.13;;
27618;SDS011;15039;50.830;4.730;2022-07-06T06:28:18;3.03;;;2.10;;
27618;SDS011;15039;50.830;4.730;2022-07-06T06:30:43;3.50;;;2.17;;
27618;SDS011;15039;50.830;4.730;2022-07-06T06:35:44;3.70;;;1.90;;
27618;SDS011;15039;50.830;4.730;2022-07-06T06:38:11;5.93;;;2.38;;
27618;SDS011;15039;50.830;4.730;2022-07-06T06:40:37;5.63;;;1.95;;
27618;SDS011;15039;50.830;4.730;2022-07-06T06:43:03;5.82;;;2.58;;
27618;SDS011;15039;50.830;4.730;2022-07-06T06:45:29;2.70;;;1.70;;
27618;SDS011;15039;50.830;4.730;2022-07-06T06:47:55;3.42;;;2.03;;
27618;SDS011;15039;50.830;4.730;2022-07-06T06:50:21;4.60;;;2.10;;
27618;SDS011;15039;50.830;4.730;2022-07-06T06:52:48;4.60;;;2.00;;
27618;SDS011;15039;50.830;4.730;2022-07-06T06:55:14;7.35;;;2.00;;
27618;SDS011;15039;50.830;4.730;2022-07-06T06:57:40;4.07;;;2.03;;
27618;SDS011;15039;50.830;4.730;2022-07-06T07:00:06;3.97;;;1.85;;
27618;SDS011;15039;50.830;4.730;2022-07-06T07:02:32;4.43;;;2.13;;
27618;SDS011;15039;50.830;4.730;2022-07-06T07:04:58;2.95;;;1.70;;
27618;SDS011;15039;50.830;4.730;2022-07-06T07:07:24;2.90;;;1.40;;
27618;SDS011;15039;50.830;4.730;2022-07-06T07:09:50;4.07;;;1.92;;
27618;SDS011;15039;50.830;4.730;2022-07-06T07:12:15;3.40;;;1.92;;
27618;SDS011;15039;50.830;4.730;2022-07-06T07:14:42;3.40;;;1.73;;
27618;SDS011;15039;50.830;4.730;2022-07-06T07:17:08;4.00;;;1.80;;
27618;SDS011;15039;50.830;4.730;2022-07-06T07:19:34;5.85;;;1.73;;
27618;SDS011;15039;50.830;4.730;2022-07-06T07:22:00;2.50;;;1.48;;
27618;SDS011;15039;50.830;4.730;2022-07-06T07:24:25;2.67;;;1.30;;
27618;SDS011;15039;50.830;4.730;2022-07-06T07:26:51;6.82;;;1.25;;
27618;SDS011;15039;50.830;4.730;2022-07-06T07:29:16;3.50;;;0.80;;
27618;SDS011;15039;50.830;4.730;2022-07-06T07:31:42;4.20;;;1.10;;
27618;SDS011;15039;50.830;4.730;2022-07-06T07:34:08;1.92;;;0.82;;
27618;SDS011;15039;50.830;4.730;2022-07-06T07:36:34;1.40;;;0.70;;
27618;SDS011;15039;50.830;4.730;2022-07-06T07:39:00;3.10;;;1.15;;
27618;SDS011;15039;50.830;4.730;2022-07-06T07:41:26;3.03;;;1.27;;
27618;SDS011;15039;50.830;4.730;2022-07-06T07:43:52;2.70;;;1.00;;
27618;SDS011;15039;50.830;4.730;2022-07-06T07:46:18;1.33;;;0.75;;
27618;SDS011;15039;50.830;4.730;2022-07-06T07:48:43;1.35;;;0.70;;
27618;SDS011;15039;50.830;4.730;2022-07-06T07:51:09;2.65;;;0.80;;
27618;SDS011;15039;50.830;4.730;2022-07-06T07:53:35;3.17;;;0.90;;
27618;SDS011;15039;50.830;4.730;2022-07-06T07:56:00;3.90;;;1.13;;
27618;SDS011;15039;50.830;4.730;2022-07-06T07:58:26;2.13;;;0.90;;
27618;SDS011;15039;50.830;4.730;2022-07-06T08:00:52;2.60;;;1.02;;
27618;SDS011;15039;50.830;4.730;2022-07-06T08:03:18;3.75;;;1.35;;
27618;SDS011;15039;50.830;4.730;2022-07-06T08:05:44;2.53;;;0.77;;
27618;SDS011;15039;50.830;4.730;2022-07-06T08:08:10;4.57;;;1.00;;
27618;SDS011;15039;50.830;4.730;2022-07-06T08:10:36;3.83;;;1.05;;
27618;SDS011;15039;50.830;4.730;2022-07-06T08:13:02;2.47;;;1.17;;
27618;SDS011;15039;50.830;4.730;2022-07-06T08:15:27;5.05;;;1.20;;
27618;SDS011;15039;50.830;4.730;2022-07-06T08:17:53;4.15;;;1.48;;
27618;SDS011;15039;50.830;4.730;2022-07-06T08:20:19;2.65;;;1.20;;
27618;SDS011;15039;50.830;4.730;2022-07-06T08:22:44;2.70;;;1.27;;
27618;SDS011;15039;50.830;4.730;2022-07-06T08:25:10;6.05;;;1.52;;
27618;SDS011;15039;50.830;4.730;2022-07-06T08:27:36;3.42;;;1.80;;
27618;SDS011;15039;50.830;4.730;2022-07-06T08:30:03;6.07;;;1.52;;
27618;SDS011;15039;50.830;4.730;2022-07-06T08:32:29;11.02;;;1.90;;
27618;SDS011;15039;50.830;4.730;2022-07-06T08:34:55;4.15;;;1.90;;
27618;SDS011;15039;50.830;4.730;2022-07-06T08:37:20;5.00;;;1.80;;
27618;SDS011;15039;50.830;4.730;2022-07-06T08:39:46;4.93;;;1.58;;
27618;SDS011;15039;50.830;4.730;2022-07-06T08:42:12;3.70;;;1.45;;
27618;SDS011;15039;50.830;4.730;2022-07-06T08:44:41;5.20;;;1.60;;
27618;SDS011;15039;50.830;4.730;2022-07-06T08:47:07;4.80;;;1.63;;
27618;SDS011;15039;50.830;4.730;2022-07-06T08:49:34;7.60;;;1.98;;
27618;SDS011;15039;50.830;4.730;2022-07-06T08:52:01;5.57;;;2.05;;
27618;SDS011;15039;50.830;4.730;2022-07-06T08:54:28;8.57;;;1.83;;
27618;SDS011;15039;50.830;4.730;2022-07-06T08:56:54;5.93;;;1.58;;
27618;SDS011;15039;50.830;4.730;2022-07-06T08:59:19;6.18;;;1.60;;
27618;SDS011;15039;50.830;4.730;2022-07-06T09:01:45;6.35;;;1.73;;
27618;SDS011;15039;50.830;4.730;2022-07-06T09:04:12;4.22;;;1.35;;
27618;SDS011;15039;50.830;4.730;2022-07-06T09:06:42;5.43;;;1.40;;
27618;SDS011;15039;50.830;4.730;2022-07-06T09:09:10;5.63;;;1.33;;
27618;SDS011;15039;50.830;4.730;2022-07-06T09:11:44;4.53;;;1.00;;
27618;SDS011;15039;50.830;4.730;2022-07-06T09:14:10;4.25;;;1.17;;
27618;SDS011;15039;50.830;4.730;2022-07-06T09:16:35;4.53;;;1.65;;
27618;SDS011;15039;50.830;4.730;2022-07-06T09:19:01;5.85;;;1.70;;
27618;SDS011;15039;50.830;4.730;2022-07-06T09:21:28;5.53;;;1.30;;
27618;SDS011;15039;50.830;4.730;2022-07-06T09:23:56;5.70;;;1.50;;
27618;SDS011;15039;50.830;4.730;2022-07-06T09:26:24;4.00;;;1.20;;
27618;SDS011;15039;50.830;4.730;2022-07-06T09:28:51;5.57;;;1.52;;
27618;SDS011;15039;50.830;4.730;2022-07-06T09:31:17;9.48;;;1.90;;
27618;SDS011;15039;50.830;4.730;2022-07-06T09:33:56;2.92;;;1.40;;
27618;SDS011;15039;50.830;4.730;2022-07-06T09:36:43;6.55;;;1.40;;
27618;SDS011;15039;50.830;4.730;2022-07-06T09:41:53;5.53;;;1.38;;
27618;SDS011;15039;50.830;4.730;2022-07-06T09:44:27;2.15;;;1.20;;
27618;SDS011;15039;50.830;4.730;2022-07-06T09:46:55;5.53;;;1.35;;
27618;SDS011;15039;50.830;4.730;2022-07-06T09:49:22;3.20;;;1.27;;
27618;SDS011;15039;50.830;4.730;2022-07-06T09:51:54;6.88;;;1.42;;
27618;SDS011;15039;50.830;4.730;2022-07-06T09:54:21;4.00;;;1.23;;
27618;SDS011;15039;50.830;4.730;2022-07-06T09:56:47;3.33;;;1.00;;
27618;SDS011;15039;50.830;4.730;2022-07-06T09:59:17;3.95;;;1.20;;
27618;SDS011;15039;50.830;4.730;2022-07-06T10:01:50;3.45;;;1.27;;
27618;SDS011;15039;50.830;4.730;2022-07-06T10:04:17;4.43;;;1.25;;
27618;SDS011;15039;50.830;4.730;2022-07-06T10:06:45;3.30;;;1.20;;
27618;SDS011;15039;50.830;4.730;2022-07-06T10:09:11;3.95;;;1.00;;
27618;SDS011;15039;50.830;4.730;2022-07-06T10:11:45;2.90;;;1.40;;
27618;SDS011;15039;50.830;4.730;2022-07-06T10:14:17;2.83;;;1.10;;
27618;SDS011;15039;50.830;4.730;2022-07-06T10:19:12;4.57;;;1.30;;
27618;SDS011;15039;50.830;4.730;2022-07-06T10:21:40;3.65;;;1.30;;
27618;SDS011;15039;50.830;4.730;2022-07-06T10:24:06;4.03;;;1.27;;
27618;SDS011;15039;50.830;4.730;2022-07-06T10:26:34;5.55;;;1.90;;
27618;SDS011;15039;50.830;4.730;2022-07-06T10:29:01;5.47;;;1.15;;
27618;SDS011;15039;50.830;4.730;2022-07-06T10:31:30;3.05;;;1.65;;
27618;SDS011;15039;50.830;4.730;2022-07-06T10:33:57;9.50;;;1.50;;
27618;SDS011;15039;50.830;4.730;2022-07-06T10:36:24;4.95;;;1.23;;
27618;SDS011;15039;50.830;4.730;2022-07-06T10:38:51;5.03;;;1.35;;
27618;SDS011;15039;50.830;4.730;2022-07-06T10:41:17;4.95;;;1.30;;
27618;SDS011;15039;50.830;4.730;2022-07-06T10:43:55;2.20;;;1.00;;
27618;SDS011;15039;50.830;4.730;2022-07-06T10:46:23;2.80;;;1.00;;
27618;SDS011;15039;50.830;4.730;2022-07-06T10:48:53;3.10;;;1.45;;
27618;SDS011;15039;50.830;4.730;2022-07-06T10:51:25;3.03;;;0.90;;
27618;SDS011;15039;50.830;4.730;2022-07-06T10:53:55;1.67;;;0.90;;
27618;SDS011;15039;50.830;4.730;2022-07-06T10:56:31;2.53;;;1.05;;
27618;SDS011;15039;50.830;4.730;2022-07-06T10:59:02;4.55;;;1.30;;
27618;SDS011;15039;50.830;4.730;2022-07-06T11:01:34;4.72;;;1.30;;
27618;SDS011;15039;50.830;4.730;2022-07-06T11:06:26;4.05;;;1.50;;
27618;SDS011;15039;50.830;4.730;2022-07-06T11:08:52;3.05;;;1.15;;
27618;SDS011;15039;50.830;4.730;2022-07-06T11:14:07;5.22;;;1.30;;
27618;SDS011;15039;50.830;4.730;2022-07-06T11:16:59;3.95;;;1.10;;
27618;SDS011;15039;50.830;4.730;2022-07-06T11:19:29;5.82;;;1.30;;
27618;SDS011;15039;50.830;4.730;2022-07-06T11:21:56;6.40;;;1.25;;
27618;SDS011;15039;50.830;4.730;2022-07-06T11:24:32;2.65;;;1.30;;
27618;SDS011;15039;50.830;4.730;2022-07-06T11:27:00;2.80;;;1.30;;
27618;SDS011;15039;50.830;4.730;2022-07-06T11:29:27;3.00;;;1.00;;
27618;SDS011;15039;50.830;4.730;2022-07-06T11:31:55;2.95;;;1.13;;
27618;SDS011;15039;50.830;4.730;2022-07-06T11:34:30;5.15;;;1.20;;
27618;SDS011;15039;50.830;4.730;2022-07-06T11:36:57;7.15;;;1.38;;
27618;SDS011;15039;50.830;4.730;2022-07-06T11:39:29;3.33;;;1.40;;
27618;SDS011;15039;50.830;4.730;2022-07-06T11:41:57;4.23;;;1.10;;
27618;SDS011;15039;50.830;4.730;2022-07-06T11:44:23;4.13;;;1.27;;
27618;SDS011;15039;50.830;4.730;2022-07-06T11:46:50;4.13;;;1.60;;
27618;SDS011;15039;50.830;4.730;2022-07-06T11:49:16;5.22;;;1.48;;
27618;SDS011;15039;50.830;4.730;2022-07-06T11:51:42;1.88;;;1.33;;
27618;SDS011;15039;50.830;4.730;2022-07-06T11:56:47;6.45;;;2.13;;
27618;SDS011;15039;50.830;4.730;2022-07-06T11:59:19;6.78;;;2.25;;
27618;SDS011;15039;50.830;4.730;2022-07-06T12:01:57;2.35;;;1.13;;
27618;SDS011;15039;50.830;4.730;2022-07-06T12:04:24;4.25;;;1.30;;
27618;SDS011;15039;50.830;4.730;2022-07-06T12:06:50;4.40;;;1.30;;
27618;SDS011;15039;50.830;4.730;2022-07-06T12:09:15;5.40;;;1.38;;
27618;SDS011;15039;50.830;4.730;2022-07-06T12:11:43;6.97;;;1.45;;
27618;SDS011;15039;50.830;4.730;2022-07-06T12:14:18;5.30;;;1.67;;
27618;SDS011;15039;50.830;4.730;2022-07-06T12:16:46;7.30;;;1.52;;
27618;SDS011;15039;50.830;4.730;2022-07-06T12:19:13;5.20;;;1.40;;
27618;SDS011;15039;50.830;4.730;2022-07-06T12:21:44;5.25;;;1.45;;
27618;SDS011;15039;50.830;4.730;2022-07-06T12:24:20;4.00;;;1.50;;
27618;SDS011;15039;50.830;4.730;2022-07-06T12:26:47;3.05;;;1.25;;
27618;SDS011;15039;50.830;4.730;2022-07-06T12:29:14;4.00;;;1.40;;
27618;SDS011;15039;50.830;4.730;2022-07-06T12:31:44;5.65;;;1.55;;
27618;SDS011;15039;50.830;4.730;2022-07-06T12:34:21;5.20;;;1.35;;
27618;SDS011;15039;50.830;4.730;2022-07-06T12:39:14;4.43;;;1.60;;
27618;SDS011;15039;50.830;4.730;2022-07-06T12:42:23;4.55;;;1.52;;
27618;SDS011;15039;50.830;4.730;2022-07-06T12:49:29;2.88;;;1.40;;
27618;SDS011;15039;50.830;4.730;2022-07-06T12:51:56;5.88;;;2.17;;
27618;SDS011;15039;50.830;4.730;2022-07-06T12:54:31;4.57;;;1.73;;
27618;SDS011;15039;50.830;4.730;2022-07-06T12:57:00;2.20;;;1.40;;
27618;SDS011;15039;50.830;4.730;2022-07-06T12:59:28;3.72;;;1.58;;
27618;SDS011;15039;50.830;4.730;2022-07-06T13:01:55;3.92;;;1.70;;
27618;SDS011;15039;50.830;4.730;2022-07-06T13:04:31;5.93;;;1.88;;
27618;SDS011;15039;50.830;4.730;2022-07-06T13:06:57;7.57;;;1.67;;
27618;SDS011;15039;50.830;4.730;2022-07-06T13:09:24;6.00;;;1.67;;
27618;SDS011;15039;50.830;4.730;2022-07-06T13:11:50;5.25;;;1.50;;
27618;SDS011;15039;50.830;4.730;2022-07-06T13:14:17;4.88;;;1.40;;
27618;SDS011;15039;50.830;4.730;2022-07-06T13:16:44;5.10;;;1.80;;
27618;SDS011;15039;50.830;4.730;2022-07-06T13:19:11;4.53;;;1.40;;
27618;SDS011;15039;50.830;4.730;2022-07-06T13:21:37;5.90;;;1.63;;
27618;SDS011;15039;50.830;4.730;2022-07-06T13:24:03;7.22;;;1.77;;
27618;SDS011;15039;50.830;4.730;2022-07-06T13:26:29;6.30;;;1.88;;
27618;SDS011;15039;50.830;4.730;2022-07-06T13:28:58;9.70;;;2.35;;
27618;SDS011;15039;50.830;4.730;2022-07-06T13:31:24;5.22;;;1.48;;
27618;SDS011;15039;50.830;4.730;2022-07-06T13:33:51;3.65;;;1.58;;
27618;SDS011;15039;50.830;4.730;2022-07-06T13:36:16;2.15;;;1.50;;
27618;SDS011;15039;50.830;4.730;2022-07-06T13:38:42;7.28;;;1.83;;
27618;SDS011;15039;50.830;4.730;2022-07-06T13:41:08;3.80;;;1.90;;
27618;SDS011;15039;50.830;4.730;2022-07-06T13:43:33;8.30;;;1.92;;
27618;SDS011;15039;50.830;4.730;2022-07-06T13:46:05;5.82;;;1.58;;
27618;SDS011;15039;50.830;4.730;2022-07-06T13:48:32;5.00;;;1.50;;
27618;SDS011;15039;50.830;4.730;2022-07-06T13:50:59;4.72;;;1.85;;
27618;SDS011;15039;50.830;4.730;2022-07-06T13:53:25;3.97;;;1.83;;
27618;SDS011;15039;50.830;4.730;2022-07-06T13:55:51;5.30;;;1.33;;
27618;SDS011;15039;50.830;4.730;2022-07-06T13:58:17;3.78;;;1.42;;
27618;SDS011;15039;50.830;4.730;2022-07-06T14:00:43;7.57;;;1.40;;
27618;SDS011;15039;50.830;4.730;2022-07-06T14:03:09;2.72;;;1.45;;
27618;SDS011;15039;50.830;4.730;2022-07-06T14:05:35;3.47;;;1.30;;
27618;SDS011;15039;50.830;4.730;2022-07-06T14:08:01;4.45;;;1.33;;
27618;SDS011;15039;50.830;4.730;2022-07-06T14:10:27;2.42;;;1.33;;
27618;SDS011;15039;50.830;4.730;2022-07-06T14:12:53;3.28;;;1.45;;
27618;SDS011;15039;50.830;4.730;2022-07-06T14:15:19;2.53;;;1.13;;
27618;SDS011;15039;50.830;4.730;2022-07-06T14:17:45;2.63;;;1.33;;
27618;SDS011;15039;50.830;4.730;2022-07-06T14:20:12;3.38;;;1.30;;
27618;SDS011;15039;50.830;4.730;2022-07-06T14:22:38;2.30;;;1.17;;
27618;SDS011;15039;50.830;4.730;2022-07-06T14:25:04;4.72;;;1.50;;
27618;SDS011;15039;50.830;4.730;2022-07-06T14:27:31;2.70;;;1.27;;
27618;SDS011;15039;50.830;4.730;2022-07-06T14:29:58;2.75;;;1.25;;
27618;SDS011;15039;50.830;4.730;2022-07-06T14:32:23;2.80;;;1.55;;
27618;SDS011;15039;50.830;4.730;2022-07-06T14:34:49;5.60;;;1.10;;
27618;SDS011;15039;50.830;4.730;2022-07-06T14:37:14;5.32;;;1.00;;
27618;SDS011;15039;50.830;4.730;2022-07-06T14:39:40;3.28;;;1.20;;
27618;SDS011;15039;50.830;4.730;2022-07-06T14:42:06;3.45;;;1.88;;
27618;SDS011;15039;50.830;4.730;2022-07-06T14:44:32;5.20;;;1.40;;
27618;SDS011;15039;50.830;4.730;2022-07-06T14:46:58;2.33;;;1.00;;
27618;SDS011;15039;50.830;4.730;2022-07-06T14:49:24;1.88;;;1.30;;
27618;SDS011;15039;50.830;4.730;2022-07-06T14:51:50;2.65;;;1.20;;
27618;SDS011;15039;50.830;4.730;2022-07-06T14:54:15;4.13;;;1.30;;
27618;SDS011;15039;50.830;4.730;2022-07-06T14:56:41;3.13;;;1.00;;
27618;SDS011;15039;50.830;4.730;2022-07-06T14:59:07;3.10;;;1.50;;
27618;SDS011;15039;50.830;4.730;2022-07-06T15:01:33;5.72;;;1.65;;
27618;SDS011;15039;50.830;4.730;2022-07-06T15:03:59;4.13;;;1.20;;
27618;SDS011;15039;50.830;4.730;2022-07-06T15:06:24;3.28;;;1.40;;
27618;SDS011;15039;50.830;4.730;2022-07-06T15:08:50;4.60;;;1.50;;
27618;SDS011;15039;50.830;4.730;2022-07-06T15:11:16;4.93;;;1.50;;